sensor_id;sensor_type;location;lat;lon;timestamp;P1;durP1;ratioP1;P2;durP2;ratioP2
38222;SDS011;24024;51.186;6.458;2024-03-29T00:01:50;5.75;;;1.45;;
38222;SDS011;24024;51.186;6.458;2024-03-29T00:04:18;5.28;;;1.10;;
38222;SDS011;24024;51.186;6.458;2024-03-29T00:06:44;6.88;;;1.60;;
38222;SDS011;24024;51.186;6.458;2024-03-29T00:09:09;5.97;;;1.23;;
38222;SDS011;24024;51.186;6.458;2024-03-29T00:11:38;5.88;;;1.20;;
38222;SDS011;24024;51.186;6.458;2024-03-29T00:14:03;6.20;;;1.00;;
38222;SDS011;24024;51.186;6.458;2024-03-29T00:16:29;6.18;;;1.40;;
38222;SDS011;24024;51.186;6.458;2024-03-29T00:18:55;4.93;;;1.50;;
38222;SDS011;24024;51.186;6.458;2024-03-29T00:21:21;5.93;;;1.10;;
38222;SDS011;24024;51.186;6.458;2024-03-29T00:23:47;6.85;;;2.15;;
38222;SDS011;24024;51.186;6.458;2024-03-29T00:26:13;9.68;;;1.85;;
38222;SDS011;24024;51.186;6.458;2024-03-29T00:28:38;9.88;;;1.98;;
38222;SDS011;24024;51.186;6.458;2024-03-29T00:31:07;8.63;;;2.58;;
38222;SDS011;24024;51.186;6.458;2024-03-29T00:33:33;6.28;;;1.83;;
38222;SDS011;24024;51.186;6.458;2024-03-29T00:36:00;6.15;;;1.73;;
38222;SDS011;24024;51.186;6.458;2024-03-29T00:38:25;5.10;;;1.63;;
38222;SDS011;24024;51.186;6.458;2024-03-29T00:40:51;6.70;;;1.20;;
38222;SDS011;24024;51.186;6.458;2024-03-29T00:43:17;5.47;;;1.30;;
38222;SDS011;24024;51.186;6.458;2024-03-29T00:45:45;4.50;;;1.30;;
38222;SDS011;24024;51.186;6.458;2024-03-29T00:48:11;5.10;;;1.75;;
38222;SDS011;24024;51.186;6.458;2024-03-29T00:50:40;5.13;;;1.20;;
38222;SDS011;24024;51.186;6.458;2024-03-29T00:53:06;4.70;;;1.17;;
38222;SDS011;24024;51.186;6.458;2024-03-29T00:55:31;4.78;;;1.50;;
38222;SDS011;24024;51.186;6.458;2024-03-29T00:57:59;3.40;;;1.08;;
38222;SDS011;24024;51.186;6.458;2024-03-29T01:00:27;5.40;;;1.48;;
38222;SDS011;24024;51.186;6.458;2024-03-29T01:02:53;4.07;;;1.38;;
38222;SDS011;24024;51.186;6.458;2024-03-29T01:05:22;3.60;;;1.30;;
38222;SDS011;24024;51.186;6.458;2024-03-29T01:07:48;3.47;;;0.95;;
38222;SDS011;24024;51.186;6.458;2024-03-29T01:10:14;3.85;;;1.33;;
38222;SDS011;24024;51.186;6.458;2024-03-29T01:12:40;4.70;;;1.35;;
38222;SDS011;24024;51.186;6.458;2024-03-29T01:15:06;3.13;;;0.82;;
38222;SDS011;24024;51.186;6.458;2024-03-29T01:17:32;6.03;;;1.30;;
38222;SDS011;24024;51.186;6.458;2024-03-29T01:19:58;4.60;;;1.13;;
38222;SDS011;24024;51.186;6.458;2024-03-29T01:22:23;3.17;;;0.80;;
38222;SDS011;24024;51.186;6.458;2024-03-29T01:24:49;4.65;;;1.10;;
38222;SDS011;24024;51.186;6.458;2024-03-29T01:27:15;4.20;;;0.90;;
38222;SDS011;24024;51.186;6.458;2024-03-29T01:29:41;3.75;;;1.23;;
38222;SDS011;24024;51.186;6.458;2024-03-29T01:32:09;3.35;;;0.80;;
38222;SDS011;24024;51.186;6.458;2024-03-29T01:34:35;5.22;;;1.00;;
38222;SDS011;24024;51.186;6.458;2024-03-29T01:37:01;4.35;;;0.98;;
38222;SDS011;24024;51.186;6.458;2024-03-29T01:39:26;3.22;;;0.60;;
38222;SDS011;24024;51.186;6.458;2024-03-29T01:41:56;3.45;;;0.82;;
38222;SDS011;24024;51.186;6.458;2024-03-29T01:44:22;2.95;;;0.80;;
38222;SDS011;24024;51.186;6.458;2024-03-29T01:46:48;2.42;;;0.70;;
38222;SDS011;24024;51.186;6.458;2024-03-29T01:49:14;3.80;;;0.85;;
38222;SDS011;24024;51.186;6.458;2024-03-29T01:51:40;3.75;;;0.80;;
38222;SDS011;24024;51.186;6.458;2024-03-29T01:54:08;1.42;;;0.55;;
38222;SDS011;24024;51.186;6.458;2024-03-29T01:56:38;2.08;;;0.50;;
38222;SDS011;24024;51.186;6.458;2024-03-29T01:59:13;3.22;;;0.80;;
38222;SDS011;24024;51.186;6.458;2024-03-29T02:01:41;2.47;;;0.60;;
38222;SDS011;24024;51.186;6.458;2024-03-29T02:04:09;2.28;;;0.70;;
38222;SDS011;24024;51.186;6.458;2024-03-29T02:06:35;3.00;;;0.70;;
38222;SDS011;24024;51.186;6.458;2024-03-29T02:09:02;2.03;;;0.50;;
38222;SDS011;24024;51.186;6.458;2024-03-29T02:11:30;4.95;;;0.90;;
38222;SDS011;24024;51.186;6.458;2024-03-29T02:13:59;4.05;;;0.70;;
38222;SDS011;24024;51.186;6.458;2024-03-29T02:16:25;4.07;;;0.75;;
38222;SDS011;24024;51.186;6.458;2024-03-29T02:18:50;3.97;;;0.80;;
38222;SDS011;24024;51.186;6.458;2024-03-29T02:21:18;2.78;;;0.88;;
38222;SDS011;24024;51.186;6.458;2024-03-29T02:23:44;1.95;;;0.60;;
38222;SDS011;24024;51.186;6.458;2024-03-29T02:26:17;3.03;;;0.70;;
38222;SDS011;24024;51.186;6.458;2024-03-29T02:28:43;2.92;;;0.90;;
38222;SDS011;24024;51.186;6.458;2024-03-29T02:31:09;3.50;;;1.08;;
38222;SDS011;24024;51.186;6.458;2024-03-29T02:33:35;3.03;;;0.85;;
38222;SDS011;24024;51.186;6.458;2024-03-29T02:36:00;2.70;;;0.70;;
38222;SDS011;24024;51.186;6.458;2024-03-29T02:38:28;3.10;;;0.60;;
38222;SDS011;24024;51.186;6.458;2024-03-29T02:40:57;1.90;;;0.57;;
38222;SDS011;24024;51.186;6.458;2024-03-29T02:43:23;4.15;;;0.70;;
38222;SDS011;24024;51.186;6.458;2024-03-29T02:45:48;2.05;;;0.60;;
38222;SDS011;24024;51.186;6.458;2024-03-29T02:48:14;3.92;;;0.55;;
38222;SDS011;24024;51.186;6.458;2024-03-29T02:50:42;2.10;;;0.60;;
38222;SDS011;24024;51.186;6.458;2024-03-29T02:53:08;3.65;;;0.80;;
38222;SDS011;24024;51.186;6.458;2024-03-29T02:55:34;2.53;;;0.55;;
38222;SDS011;24024;51.186;6.458;2024-03-29T02:58:00;2.45;;;0.70;;
38222;SDS011;24024;51.186;6.458;2024-03-29T03:00:25;2.72;;;0.70;;
38222;SDS011;24024;51.186;6.458;2024-03-29T03:02:51;4.60;;;1.08;;
38222;SDS011;24024;51.186;6.458;2024-03-29T03:05:17;4.35;;;1.00;;
38222;SDS011;24024;51.186;6.458;2024-03-29T03:07:43;4.47;;;1.00;;
38222;SDS011;24024;51.186;6.458;2024-03-29T03:10:27;2.55;;;0.70;;
38222;SDS011;24024;51.186;6.458;2024-03-29T03:13:11;3.13;;;0.88;;
38222;SDS011;24024;51.186;6.458;2024-03-29T03:15:40;1.52;;;0.60;;
38222;SDS011;24024;51.186;6.458;2024-03-29T03:18:05;2.00;;;0.60;;
38222;SDS011;24024;51.186;6.458;2024-03-29T03:20:31;1.58;;;0.50;;
38222;SDS011;24024;51.186;6.458;2024-03-29T03:22:58;5.07;;;1.13;;
38222;SDS011;24024;51.186;6.458;2024-03-29T03:25:24;1.60;;;0.60;;
38222;SDS011;24024;51.186;6.458;2024-03-29T03:27:52;3.38;;;0.60;;
38222;SDS011;24024;51.186;6.458;2024-03-29T03:30:17;6.10;;;0.85;;
38222;SDS011;24024;51.186;6.458;2024-03-29T03:32:45;3.03;;;0.90;;
38222;SDS011;24024;51.186;6.458;2024-03-29T03:35:16;2.80;;;0.60;;
38222;SDS011;24024;51.186;6.458;2024-03-29T03:37:42;4.47;;;0.70;;
38222;SDS011;24024;51.186;6.458;2024-03-29T03:40:07;6.45;;;0.73;;
38222;SDS011;24024;51.186;6.458;2024-03-29T03:42:33;1.73;;;0.73;;
38222;SDS011;24024;51.186;6.458;2024-03-29T03:44:59;3.40;;;0.80;;
38222;SDS011;24024;51.186;6.458;2024-03-29T03:47:25;4.47;;;0.77;;
38222;SDS011;24024;51.186;6.458;2024-03-29T03:49:53;3.58;;;0.60;;
38222;SDS011;24024;51.186;6.458;2024-03-29T03:52:19;2.22;;;0.52;;
38222;SDS011;24024;51.186;6.458;2024-03-29T03:54:45;2.35;;;0.60;;
38222;SDS011;24024;51.186;6.458;2024-03-29T03:57:10;1.90;;;0.50;;
38222;SDS011;24024;51.186;6.458;2024-03-29T03:59:36;2.50;;;0.88;;
38222;SDS011;24024;51.186;6.458;2024-03-29T04:02:02;6.35;;;0.93;;
38222;SDS011;24024;51.186;6.458;2024-03-29T04:04:28;2.72;;;0.50;;
38222;SDS011;24024;51.186;6.458;2024-03-29T04:06:54;3.17;;;0.75;;
38222;SDS011;24024;51.186;6.458;2024-03-29T04:09:19;1.77;;;0.57;;
38222;SDS011;24024;51.186;6.458;2024-03-29T04:11:45;1.90;;;0.65;;
38222;SDS011;24024;51.186;6.458;2024-03-29T04:14:11;1.88;;;0.52;;
38222;SDS011;24024;51.186;6.458;2024-03-29T04:16:37;4.30;;;0.68;;
38222;SDS011;24024;51.186;6.458;2024-03-29T04:19:05;3.78;;;0.90;;
38222;SDS011;24024;51.186;6.458;2024-03-29T04:21:30;7.20;;;0.85;;
38222;SDS011;24024;51.186;6.458;2024-03-29T04:24:01;3.30;;;0.77;;
38222;SDS011;24024;51.186;6.458;2024-03-29T04:26:27;3.47;;;0.70;;
38222;SDS011;24024;51.186;6.458;2024-03-29T04:28:52;4.05;;;0.90;;
38222;SDS011;24024;51.186;6.458;2024-03-29T04:31:18;2.28;;;0.75;;
38222;SDS011;24024;51.186;6.458;2024-03-29T04:33:44;6.13;;;0.80;;
38222;SDS011;24024;51.186;6.458;2024-03-29T04:36:12;3.17;;;0.70;;
38222;SDS011;24024;51.186;6.458;2024-03-29T04:38:38;4.07;;;0.80;;
38222;SDS011;24024;51.186;6.458;2024-03-29T04:41:06;3.80;;;0.90;;
38222;SDS011;24024;51.186;6.458;2024-03-29T04:43:32;3.25;;;0.88;;
38222;SDS011;24024;51.186;6.458;2024-03-29T04:46:01;3.63;;;0.90;;
38222;SDS011;24024;51.186;6.458;2024-03-29T04:48:36;5.85;;;1.38;;
38222;SDS011;24024;51.186;6.458;2024-03-29T04:51:11;3.92;;;1.50;;
38222;SDS011;24024;51.186;6.458;2024-03-29T04:53:38;6.82;;;1.10;;
38222;SDS011;24024;51.186;6.458;2024-03-29T04:56:06;2.75;;;1.13;;
38222;SDS011;24024;51.186;6.458;2024-03-29T04:58:32;2.38;;;0.70;;
38222;SDS011;24024;51.186;6.458;2024-03-29T05:00:58;4.80;;;0.90;;
38222;SDS011;24024;51.186;6.458;2024-03-29T05:03:24;3.05;;;0.90;;
38222;SDS011;24024;51.186;6.458;2024-03-29T05:05:50;3.33;;;0.90;;
38222;SDS011;24024;51.186;6.458;2024-03-29T05:08:17;3.47;;;1.02;;
38222;SDS011;24024;51.186;6.458;2024-03-29T05:10:44;3.08;;;1.00;;
38222;SDS011;24024;51.186;6.458;2024-03-29T05:13:10;5.45;;;1.30;;
38222;SDS011;24024;51.186;6.458;2024-03-29T05:15:38;4.15;;;1.42;;
38222;SDS011;24024;51.186;6.458;2024-03-29T05:18:04;4.10;;;1.40;;
38222;SDS011;24024;51.186;6.458;2024-03-29T05:20:34;3.58;;;1.33;;
38222;SDS011;24024;51.186;6.458;2024-03-29T05:23:01;3.72;;;1.13;;
38222;SDS011;24024;51.186;6.458;2024-03-29T05:25:30;7.57;;;1.80;;
38222;SDS011;24024;51.186;6.458;2024-03-29T05:27:55;2.63;;;1.10;;
38222;SDS011;24024;51.186;6.458;2024-03-29T05:30:21;5.60;;;1.48;;
38222;SDS011;24024;51.186;6.458;2024-03-29T05:32:49;3.97;;;1.23;;
38222;SDS011;24024;51.186;6.458;2024-03-29T05:35:15;5.75;;;1.40;;
38222;SDS011;24024;51.186;6.458;2024-03-29T05:37:41;6.50;;;1.67;;
38222;SDS011;24024;51.186;6.458;2024-03-29T05:40:14;6.53;;;1.38;;
38222;SDS011;24024;51.186;6.458;2024-03-29T05:42:40;4.55;;;1.30;;
38222;SDS011;24024;51.186;6.458;2024-03-29T05:45:20;7.60;;;1.40;;
38222;SDS011;24024;51.186;6.458;2024-03-29T05:47:56;4.85;;;1.30;;
38222;SDS011;24024;51.186;6.458;2024-03-29T05:50:23;5.78;;;1.48;;
38222;SDS011;24024;51.186;6.458;2024-03-29T05:52:50;4.90;;;1.25;;
38222;SDS011;24024;51.186;6.458;2024-03-29T05:55:16;8.13;;;1.58;;
38222;SDS011;24024;51.186;6.458;2024-03-29T05:57:44;3.53;;;1.10;;
38222;SDS011;24024;51.186;6.458;2024-03-29T06:00:13;4.55;;;1.30;;
38222;SDS011;24024;51.186;6.458;2024-03-29T06:02:40;3.85;;;1.20;;
38222;SDS011;24024;51.186;6.458;2024-03-29T06:05:06;4.88;;;1.30;;
38222;SDS011;24024;51.186;6.458;2024-03-29T06:07:36;3.95;;;1.30;;
38222;SDS011;24024;51.186;6.458;2024-03-29T06:10:02;4.43;;;1.20;;
38222;SDS011;24024;51.186;6.458;2024-03-29T06:12:35;3.85;;;1.20;;
38222;SDS011;24024;51.186;6.458;2024-03-29T06:15:04;2.58;;;0.90;;
38222;SDS011;24024;51.186;6.458;2024-03-29T06:17:49;5.57;;;1.38;;
38222;SDS011;24024;51.186;6.458;2024-03-29T06:20:15;3.33;;;1.23;;
38222;SDS011;24024;51.186;6.458;2024-03-29T06:22:43;2.90;;;1.00;;
38222;SDS011;24024;51.186;6.458;2024-03-29T06:25:09;3.13;;;1.20;;
38222;SDS011;24024;51.186;6.458;2024-03-29T06:27:35;4.72;;;1.35;;
38222;SDS011;24024;51.186;6.458;2024-03-29T06:30:02;3.20;;;1.02;;
38222;SDS011;24024;51.186;6.458;2024-03-29T06:32:30;3.78;;;1.00;;
38222;SDS011;24024;51.186;6.458;2024-03-29T06:34:56;2.75;;;1.10;;
38222;SDS011;24024;51.186;6.458;2024-03-29T06:37:22;4.55;;;1.30;;
38222;SDS011;24024;51.186;6.458;2024-03-29T06:39:53;3.75;;;0.98;;
38222;SDS011;24024;51.186;6.458;2024-03-29T06:42:21;2.83;;;0.98;;
38222;SDS011;24024;51.186;6.458;2024-03-29T06:44:48;3.83;;;1.50;;
38222;SDS011;24024;51.186;6.458;2024-03-29T06:47:17;4.85;;;1.23;;
38222;SDS011;24024;51.186;6.458;2024-03-29T06:49:43;3.10;;;1.08;;
38222;SDS011;24024;51.186;6.458;2024-03-29T06:52:09;3.25;;;1.00;;
38222;SDS011;24024;51.186;6.458;2024-03-29T06:54:35;2.65;;;0.90;;
38222;SDS011;24024;51.186;6.458;2024-03-29T06:57:01;3.42;;;1.25;;
38222;SDS011;24024;51.186;6.458;2024-03-29T06:59:29;4.38;;;1.20;;
38222;SDS011;24024;51.186;6.458;2024-03-29T07:01:55;4.50;;;1.15;;
38222;SDS011;24024;51.186;6.458;2024-03-29T07:04:23;3.65;;;1.17;;
38222;SDS011;24024;51.186;6.458;2024-03-29T07:06:50;3.17;;;1.13;;
38222;SDS011;24024;51.186;6.458;2024-03-29T07:09:17;3.40;;;1.13;;
38222;SDS011;24024;51.186;6.458;2024-03-29T07:11:45;3.28;;;0.95;;
38222;SDS011;24024;51.186;6.458;2024-03-29T07:14:12;1.83;;;0.80;;
38222;SDS011;24024;51.186;6.458;2024-03-29T07:16:38;2.83;;;1.13;;
38222;SDS011;24024;51.186;6.458;2024-03-29T07:19:07;2.50;;;0.95;;
38222;SDS011;24024;51.186;6.458;2024-03-29T07:21:44;3.63;;;1.00;;
38222;SDS011;24024;51.186;6.458;2024-03-29T07:24:11;2.85;;;1.08;;
38222;SDS011;24024;51.186;6.458;2024-03-29T07:26:40;3.42;;;1.10;;
38222;SDS011;24024;51.186;6.458;2024-03-29T07:29:06;2.95;;;1.00;;
38222;SDS011;24024;51.186;6.458;2024-03-29T07:31:35;2.30;;;0.95;;
38222;SDS011;24024;51.186;6.458;2024-03-29T07:34:01;3.80;;;1.10;;
38222;SDS011;24024;51.186;6.458;2024-03-29T07:36:26;4.88;;;1.20;;
38222;SDS011;24024;51.186;6.458;2024-03-29T07:38:59;2.92;;;0.90;;
38222;SDS011;24024;51.186;6.458;2024-03-29T07:41:26;3.70;;;1.13;;
38222;SDS011;24024;51.186;6.458;2024-03-29T07:43:54;2.83;;;0.82;;
38222;SDS011;24024;51.186;6.458;2024-03-29T07:46:27;2.42;;;1.02;;
38222;SDS011;24024;51.186;6.458;2024-03-29T07:48:56;2.65;;;1.10;;
38222;SDS011;24024;51.186;6.458;2024-03-29T07:51:24;3.97;;;1.25;;
38222;SDS011;24024;51.186;6.458;2024-03-29T07:53:50;2.50;;;1.10;;
38222;SDS011;24024;51.186;6.458;2024-03-29T07:56:16;2.53;;;1.02;;
38222;SDS011;24024;51.186;6.458;2024-03-29T07:58:42;4.28;;;1.27;;
38222;SDS011;24024;51.186;6.458;2024-03-29T08:01:08;4.47;;;1.20;;
38222;SDS011;24024;51.186;6.458;2024-03-29T08:03:34;2.72;;;0.90;;
38222;SDS011;24024;51.186;6.458;2024-03-29T08:06:01;3.97;;;1.05;;
38222;SDS011;24024;51.186;6.458;2024-03-29T08:08:33;4.97;;;1.23;;
38222;SDS011;24024;51.186;6.458;2024-03-29T08:11:01;4.47;;;1.15;;
38222;SDS011;24024;51.186;6.458;2024-03-29T08:13:27;3.53;;;1.13;;
38222;SDS011;24024;51.186;6.458;2024-03-29T08:15:59;4.07;;;1.70;;
38222;SDS011;24024;51.186;6.458;2024-03-29T08:18:28;2.55;;;0.80;;
38222;SDS011;24024;51.186;6.458;2024-03-29T08:20:56;2.97;;;1.00;;
38222;SDS011;24024;51.186;6.458;2024-03-29T08:23:26;3.20;;;1.05;;
38222;SDS011;24024;51.186;6.458;2024-03-29T08:25:52;4.93;;;1.23;;
38222;SDS011;24024;51.186;6.458;2024-03-29T08:28:21;2.65;;;1.08;;
38222;SDS011;24024;51.186;6.458;2024-03-29T08:31:06;3.35;;;1.00;;
38222;SDS011;24024;51.186;6.458;2024-03-29T08:33:35;3.15;;;0.82;;
38222;SDS011;24024;51.186;6.458;2024-03-29T08:36:08;3.88;;;1.10;;
38222;SDS011;24024;51.186;6.458;2024-03-29T08:38:39;3.03;;;1.35;;
38222;SDS011;24024;51.186;6.458;2024-03-29T08:41:08;2.42;;;1.20;;
38222;SDS011;24024;51.186;6.458;2024-03-29T08:43:34;3.00;;;1.17;;
38222;SDS011;24024;51.186;6.458;2024-03-29T08:46:00;3.72;;;1.35;;
38222;SDS011;24024;51.186;6.458;2024-03-29T08:48:29;4.03;;;1.20;;
38222;SDS011;24024;51.186;6.458;2024-03-29T08:50:57;2.88;;;0.88;;
38222;SDS011;24024;51.186;6.458;2024-03-29T08:53:23;2.83;;;1.10;;
38222;SDS011;24024;51.186;6.458;2024-03-29T08:55:52;3.83;;;1.10;;
38222;SDS011;24024;51.186;6.458;2024-03-29T08:58:18;2.80;;;1.20;;
38222;SDS011;24024;51.186;6.458;2024-03-29T09:00:52;5.03;;;1.30;;
38222;SDS011;24024;51.186;6.458;2024-03-29T09:03:22;3.55;;;1.00;;
38222;SDS011;24024;51.186;6.458;2024-03-29T09:05:49;4.57;;;0.90;;
38222;SDS011;24024;51.186;6.458;2024-03-29T09:08:17;2.72;;;1.10;;
38222;SDS011;24024;51.186;6.458;2024-03-29T09:10:43;2.60;;;1.05;;
38222;SDS011;24024;51.186;6.458;2024-03-29T09:13:09;3.00;;;1.00;;
38222;SDS011;24024;51.186;6.458;2024-03-29T09:15:36;1.92;;;1.00;;
38222;SDS011;24024;51.186;6.458;2024-03-29T09:18:05;3.25;;;1.10;;
38222;SDS011;24024;51.186;6.458;2024-03-29T09:21:01;3.13;;;0.93;;
38222;SDS011;24024;51.186;6.458;2024-03-29T09:23:27;2.33;;;0.88;;
38222;SDS011;24024;51.186;6.458;2024-03-29T09:25:57;2.47;;;1.10;;
38222;SDS011;24024;51.186;6.458;2024-03-29T09:28:23;3.40;;;0.95;;
38222;SDS011;24024;51.186;6.458;2024-03-29T09:30:56;2.15;;;1.00;;
38222;SDS011;24024;51.186;6.458;2024-03-29T09:33:24;2.05;;;0.90;;
38222;SDS011;24024;51.186;6.458;2024-03-29T09:35:49;2.10;;;0.80;;
38222;SDS011;24024;51.186;6.458;2024-03-29T09:38:16;2.80;;;1.10;;
38222;SDS011;24024;51.186;6.458;2024-03-29T09:40:41;2.50;;;0.90;;
38222;SDS011;24024;51.186;6.458;2024-03-29T09:43:08;2.10;;;0.80;;
38222;SDS011;24024;51.186;6.458;2024-03-29T09:45:38;2.75;;;0.90;;
38222;SDS011;24024;51.186;6.458;2024-03-29T09:48:04;1.67;;;0.77;;
38222;SDS011;24024;51.186;6.458;2024-03-29T09:50:32;7.05;;;1.00;;
38222;SDS011;24024;51.186;6.458;2024-03-29T09:53:02;2.13;;;0.80;;
38222;SDS011;24024;51.186;6.458;2024-03-29T09:55:30;1.63;;;0.60;;
38222;SDS011;24024;51.186;6.458;2024-03-29T09:57:58;1.23;;;0.65;;
38222;SDS011;24024;51.186;6.458;2024-03-29T10:00:25;3.50;;;0.90;;
38222;SDS011;24024;51.186;6.458;2024-03-29T10:02:53;4.85;;;1.02;;
38222;SDS011;24024;51.186;6.458;2024-03-29T10:05:22;2.67;;;0.80;;
38222;SDS011;24024;51.186;6.458;2024-03-29T10:07:48;3.05;;;1.10;;
38222;SDS011;24024;51.186;6.458;2024-03-29T10:10:17;2.42;;;1.02;;
38222;SDS011;24024;51.186;6.458;2024-03-29T10:12:43;2.80;;;0.98;;
38222;SDS011;24024;51.186;6.458;2024-03-29T10:15:09;2.80;;;1.10;;
38222;SDS011;24024;51.186;6.458;2024-03-29T10:17:39;4.50;;;1.08;;
38222;SDS011;24024;51.186;6.458;2024-03-29T10:20:10;4.18;;;1.25;;
38222;SDS011;24024;51.186;6.458;2024-03-29T10:22:40;3.78;;;1.60;;
38222;SDS011;24024;51.186;6.458;2024-03-29T10:25:18;2.20;;;1.13;;
38222;SDS011;24024;51.186;6.458;2024-03-29T10:27:45;2.42;;;0.73;;
38222;SDS011;24024;51.186;6.458;2024-03-29T10:30:13;2.42;;;1.08;;
38222;SDS011;24024;51.186;6.458;2024-03-29T10:32:44;3.75;;;0.93;;
38222;SDS011;24024;51.186;6.458;2024-03-29T10:35:10;2.17;;;0.93;;
38222;SDS011;24024;51.186;6.458;2024-03-29T10:37:38;4.20;;;0.95;;
38222;SDS011;24024;51.186;6.458;2024-03-29T10:40:10;3.08;;;0.90;;
38222;SDS011;24024;51.186;6.458;2024-03-29T10:42:42;3.30;;;0.88;;
38222;SDS011;24024;51.186;6.458;2024-03-29T10:45:09;2.55;;;0.75;;
38222;SDS011;24024;51.186;6.458;2024-03-29T10:47:38;2.50;;;0.80;;
38222;SDS011;24024;51.186;6.458;2024-03-29T10:50:06;2.47;;;0.80;;
38222;SDS011;24024;51.186;6.458;2024-03-29T10:52:35;2.63;;;0.85;;
38222;SDS011;24024;51.186;6.458;2024-03-29T10:55:01;2.95;;;1.00;;
38222;SDS011;24024;51.186;6.458;2024-03-29T10:57:27;1.55;;;0.70;;
38222;SDS011;24024;51.186;6.458;2024-03-29T11:02:48;2.80;;;0.88;;
38222;SDS011;24024;51.186;6.458;2024-03-29T11:05:17;3.13;;;0.60;;
38222;SDS011;24024;51.186;6.458;2024-03-29T11:07:44;2.95;;;0.70;;
38222;SDS011;24024;51.186;6.458;2024-03-29T11:10:20;3.42;;;0.80;;
38222;SDS011;24024;51.186;6.458;2024-03-29T11:18:25;3.15;;;1.10;;
38222;SDS011;24024;51.186;6.458;2024-03-29T11:20:55;2.63;;;0.80;;
38222;SDS011;24024;51.186;6.458;2024-03-29T11:23:24;2.33;;;0.85;;
38222;SDS011;24024;51.186;6.458;2024-03-29T11:25:52;3.45;;;1.00;;
38222;SDS011;24024;51.186;6.458;2024-03-29T11:28:27;2.13;;;0.70;;
38222;SDS011;24024;51.186;6.458;2024-03-29T11:31:03;3.63;;;1.00;;
38222;SDS011;24024;51.186;6.458;2024-03-29T11:36:10;2.40;;;0.75;;
38222;SDS011;24024;51.186;6.458;2024-03-29T11:38:37;1.98;;;0.90;;
38222;SDS011;24024;51.186;6.458;2024-03-29T11:41:10;1.55;;;0.60;;
38222;SDS011;24024;51.186;6.458;2024-03-29T11:43:58;1.80;;;0.60;;
38222;SDS011;24024;51.186;6.458;2024-03-29T11:46:25;1.63;;;0.60;;
38222;SDS011;24024;51.186;6.458;2024-03-29T11:48:51;2.90;;;0.80;;
38222;SDS011;24024;51.186;6.458;2024-03-29T11:51:20;3.58;;;0.70;;
38222;SDS011;24024;51.186;6.458;2024-03-29T11:53:51;3.60;;;0.60;;
38222;SDS011;24024;51.186;6.458;2024-03-29T11:56:20;2.35;;;0.65;;
38222;SDS011;24024;51.186;6.458;2024-03-29T11:58:47;5.95;;;0.80;;
38222;SDS011;24024;51.186;6.458;2024-03-29T12:01:14;2.97;;;0.85;;
38222;SDS011;24024;51.186;6.458;2024-03-29T12:03:41;2.25;;;0.70;;
38222;SDS011;24024;51.186;6.458;2024-03-29T12:06:08;2.22;;;0.77;;
38222;SDS011;24024;51.186;6.458;2024-03-29T12:08:35;4.53;;;0.60;;
38222;SDS011;24024;51.186;6.458;2024-03-29T12:11:03;2.78;;;0.80;;
38222;SDS011;24024;51.186;6.458;2024-03-29T12:13:29;4.18;;;1.00;;
38222;SDS011;24024;51.186;6.458;2024-03-29T12:15:56;1.90;;;0.80;;
38222;SDS011;24024;51.186;6.458;2024-03-29T12:18:25;2.67;;;0.90;;
38222;SDS011;24024;51.186;6.458;2024-03-29T12:20:53;2.00;;;0.50;;
38222;SDS011;24024;51.186;6.458;2024-03-29T12:23:21;2.35;;;0.75;;
38222;SDS011;24024;51.186;6.458;2024-03-29T12:25:50;2.80;;;0.60;;
38222;SDS011;24024;51.186;6.458;2024-03-29T12:28:19;1.45;;;0.52;;
38222;SDS011;24024;51.186;6.458;2024-03-29T12:30:46;3.10;;;0.80;;
38222;SDS011;24024;51.186;6.458;2024-03-29T12:33:16;3.47;;;0.80;;
38222;SDS011;24024;51.186;6.458;2024-03-29T12:35:47;2.03;;;0.70;;
38222;SDS011;24024;51.186;6.458;2024-03-29T12:40:48;2.05;;;0.60;;
38222;SDS011;24024;51.186;6.458;2024-03-29T12:43:19;2.45;;;0.50;;
38222;SDS011;24024;51.186;6.458;2024-03-29T12:45:49;2.45;;;0.70;;
38222;SDS011;24024;51.186;6.458;2024-03-29T12:48:17;3.05;;;1.00;;
38222;SDS011;24024;51.186;6.458;2024-03-29T12:50:48;2.73;;;0.80;;
38222;SDS011;24024;51.186;6.458;2024-03-29T12:53:15;2.30;;;0.68;;
38222;SDS011;24024;51.186;6.458;2024-03-29T12:55:42;3.50;;;0.98;;
38222;SDS011;24024;51.186;6.458;2024-03-29T12:58:12;2.47;;;0.80;;
38222;SDS011;24024;51.186;6.458;2024-03-29T13:00:42;1.88;;;0.75;;
38222;SDS011;24024;51.186;6.458;2024-03-29T13:03:09;1.90;;;0.90;;
38222;SDS011;24024;51.186;6.458;2024-03-29T13:05:36;2.28;;;0.80;;
38222;SDS011;24024;51.186;6.458;2024-03-29T13:08:06;3.28;;;1.50;;
38222;SDS011;24024;51.186;6.458;2024-03-29T13:10:40;3.67;;;1.60;;
38222;SDS011;24024;51.186;6.458;2024-03-29T13:13:09;3.55;;;1.15;;
38222;SDS011;24024;51.186;6.458;2024-03-29T13:15:36;2.15;;;0.70;;
38222;SDS011;24024;51.186;6.458;2024-03-29T13:18:06;2.55;;;0.60;;
38222;SDS011;24024;51.186;6.458;2024-03-29T13:20:35;1.90;;;0.75;;
38222;SDS011;24024;51.186;6.458;2024-03-29T13:23:07;3.53;;;0.75;;
38222;SDS011;24024;51.186;6.458;2024-03-29T13:25:33;1.63;;;0.70;;
38222;SDS011;24024;51.186;6.458;2024-03-29T13:27:58;2.03;;;0.60;;
38222;SDS011;24024;51.186;6.458;2024-03-29T13:30:25;2.03;;;0.70;;
38222;SDS011;24024;51.186;6.458;2024-03-29T13:32:52;1.40;;;0.68;;
38222;SDS011;24024;51.186;6.458;2024-03-29T13:35:18;1.20;;;0.40;;
38222;SDS011;24024;51.186;6.458;2024-03-29T13:37:48;2.08;;;0.65;;
38222;SDS011;24024;51.186;6.458;2024-03-29T13:40:18;1.98;;;0.60;;
38222;SDS011;24024;51.186;6.458;2024-03-29T13:42:44;2.10;;;0.63;;
38222;SDS011;24024;51.186;6.458;2024-03-29T13:45:10;1.92;;;0.60;;
38222;SDS011;24024;51.186;6.458;2024-03-29T13:47:37;2.00;;;0.70;;
38222;SDS011;24024;51.186;6.458;2024-03-29T13:50:05;1.48;;;0.60;;
38222;SDS011;24024;51.186;6.458;2024-03-29T13:52:32;2.13;;;0.60;;
38222;SDS011;24024;51.186;6.458;2024-03-29T13:54:59;1.55;;;0.60;;
38222;SDS011;24024;51.186;6.458;2024-03-29T13:57:25;1.30;;;0.60;;
38222;SDS011;24024;51.186;6.458;2024-03-29T13:59:51;1.42;;;0.60;;
38222;SDS011;24024;51.186;6.458;2024-03-29T14:02:18;1.90;;;0.45;;
38222;SDS011;24024;51.186;6.458;2024-03-29T14:04:48;1.65;;;0.52;;
38222;SDS011;24024;51.186;6.458;2024-03-29T14:07:15;1.52;;;0.60;;
38222;SDS011;24024;51.186;6.458;2024-03-29T14:09:42;1.05;;;0.45;;
38222;SDS011;24024;51.186;6.458;2024-03-29T14:12:14;2.25;;;0.60;;
38222;SDS011;24024;51.186;6.458;2024-03-29T14:14:40;1.10;;;0.50;;
38222;SDS011;24024;51.186;6.458;2024-03-29T14:17:12;1.23;;;0.52;;
38222;SDS011;24024;51.186;6.458;2024-03-29T14:19:38;2.95;;;0.50;;
38222;SDS011;24024;51.186;6.458;2024-03-29T14:22:05;1.67;;;0.73;;
38222;SDS011;24024;51.186;6.458;2024-03-29T14:24:32;1.50;;;0.50;;
38222;SDS011;24024;51.186;6.458;2024-03-29T14:27:01;0.90;;;0.43;;
38222;SDS011;24024;51.186;6.458;2024-03-29T14:29:29;1.98;;;0.63;;
38222;SDS011;24024;51.186;6.458;2024-03-29T14:31:58;1.00;;;0.47;;
38222;SDS011;24024;51.186;6.458;2024-03-29T14:34:23;1.20;;;0.60;;
38222;SDS011;24024;51.186;6.458;2024-03-29T14:36:50;1.85;;;0.68;;
38222;SDS011;24024;51.186;6.458;2024-03-29T14:39:17;1.77;;;0.50;;
38222;SDS011;24024;51.186;6.458;2024-03-29T14:41:48;2.50;;;0.63;;
38222;SDS011;24024;51.186;6.458;2024-03-29T14:44:16;1.27;;;0.50;;
38222;SDS011;24024;51.186;6.458;2024-03-29T14:46:43;1.17;;;0.60;;
38222;SDS011;24024;51.186;6.458;2024-03-29T14:49:10;1.20;;;0.40;;
38222;SDS011;24024;51.186;6.458;2024-03-29T14:51:40;1.55;;;0.55;;
38222;SDS011;24024;51.186;6.458;2024-03-29T14:54:06;1.48;;;0.50;;
38222;SDS011;24024;51.186;6.458;2024-03-29T14:56:35;1.05;;;0.40;;
38222;SDS011;24024;51.186;6.458;2024-03-29T14:59:05;2.25;;;0.60;;
38222;SDS011;24024;51.186;6.458;2024-03-29T15:01:35;1.42;;;0.45;;
38222;SDS011;24024;51.186;6.458;2024-03-29T15:04:01;0.98;;;0.50;;
38222;SDS011;24024;51.186;6.458;2024-03-29T15:06:28;2.35;;;0.60;;